Clara — V2CC9 — position and weather

sailwx.info

Track history (hours):
 
Tides and Currents Weather Stations Pressure Air Temp Water Temp Dewpoint Dewpoint Depression Visibility Wind Speed Wind Dir Waves Ship Positions

Clara

Last reported at 2015-Mar-27 11:31 UTC. Time now 2015-Mar-27 11:58 UTC.
Position N 40°44' E 028°46'.

Length 108 m; draft 4.4 m.

Type: Cargo ship. MMSI: 304983000.

Date/timePositionNaut miles runAvg speedWind from/ knotsBaromVisibWave heightAir tempDewpointWater temp
2015-Mar-27 11:31N 40°44' E 028°46'2 2.0
2015-Mar-27 10:21N 40°41' E 028°47'1 1.8
2015-Mar-27 09:32N 40°40' E 028°47'1 1.3
2015-Mar-27 08:29N 40°40' E 028°45'1 1.0
2015-Mar-27 07:07N 40°38' E 028°45'0 0.4
2015-Mar-27 06:33N 40°38' E 028°44'  
2015-Mar-24 18:25N 40°25' E 029°05'0 0.0
2015-Mar-24 02:19N 40°25' E 029°05'0 0.0
2015-Mar-24 01:31N 40°25' E 029°05'0 0.0
2015-Mar-24 00:25N 40°25' E 029°05'0 0.0
2015-Mar-23 23:19N 40°25' E 029°05'0 0.0
2015-Mar-23 22:31N 40°25' E 029°05'0 0.0
2015-Mar-23 16:07N 40°25' E 029°05'  
2015-Mar-21 01:07N 40°26' E 029°03'  
2015-Mar-17 16:33N 36°39' E 014°37'9 9.6
2015-Mar-17 15:33N 36°41' E 014°26'10 9.6
2015-Mar-17 14:33N 36°43' E 014°14'10 9.9
2015-Mar-17 13:34N 36°45' E 014°02'10 9.6
2015-Mar-17 12:34N 36°48' E 013°51'9 9.3
2015-Mar-17 11:34N 36°50' E 013°39'  
Track history (hours):
 
Tides and Currents Weather Stations Pressure Air Temp Water Temp Dewpoint Dewpoint Depression Visibility Wind Speed Wind Dir Waves Ship Positions

Clara

Last reported at 2015-Mar-27 11:31 UTC. Time now 2015-Mar-27 11:58 UTC.
Position N 40°44' E 028°46'.

Length 108 m; draft 4.4 m.

Type: Cargo ship. MMSI: 304983000.

Date/timePositionNaut miles runAvg speedWind from/ knotsBaromVisibWave heightAir tempDewpointWater temp
2015-Mar-27 11:31N 40°44' E 028°46'2 2.0
2015-Mar-27 10:21N 40°41' E 028°47'1 1.8
2015-Mar-27 09:32N 40°40' E 028°47'1 1.3
2015-Mar-27 08:29N 40°40' E 028°45'1 1.0
2015-Mar-27 07:07N 40°38' E 028°45'0 0.4
2015-Mar-27 06:33N 40°38' E 028°44'  
2015-Mar-24 18:25N 40°25' E 029°05'0 0.0
2015-Mar-24 02:19N 40°25' E 029°05'0 0.0
2015-Mar-24 01:31N 40°25' E 029°05'0 0.0
2015-Mar-24 00:25N 40°25' E 029°05'0 0.0
2015-Mar-23 23:19N 40°25' E 029°05'0 0.0
2015-Mar-23 22:31N 40°25' E 029°05'0 0.0
2015-Mar-23 16:07N 40°25' E 029°05'  
2015-Mar-21 01:07N 40°26' E 029°03'  
2015-Mar-17 16:33N 36°39' E 014°37'9 9.6
2015-Mar-17 15:33N 36°41' E 014°26'10 9.6
2015-Mar-17 14:33N 36°43' E 014°14'10 9.9
2015-Mar-17 13:34N 36°45' E 014°02'10 9.6
2015-Mar-17 12:34N 36°48' E 013°51'9 9.3
2015-Mar-17 11:34N 36°50' E 013°39'  

Dump ship's entire track history